sensor_id;sensor_type;location;lat;lon;timestamp;pressure;altitude;pressure_sealevel;temperature;humidity
81905;BME280;71370;-33.792;151.032;2023-08-17T00:00:27;100873.62;;;13.25;57.84
81905;BME280;71370;-33.792;151.032;2023-08-17T00:01:34;100870.69;;;13.31;58.02
81905;BME280;71370;-33.792;151.032;2023-08-17T00:02:41;100870.42;;;13.36;57.68
81905;BME280;71370;-33.792;151.032;2023-08-17T00:03:48;100868.55;;;13.40;56.74
81905;BME280;71370;-33.792;151.032;2023-08-17T00:04:55;100863.84;;;13.44;56.61
81905;BME280;71370;-33.792;151.032;2023-08-17T00:06:02;100859.89;;;13.48;56.64
81905;BME280;71370;-33.792;151.032;2023-08-17T00:07:09;100860.13;;;13.53;56.30
81905;BME280;71370;-33.792;151.032;2023-08-17T00:08:16;100861.24;;;13.58;56.03
81905;BME280;71370;-33.792;151.032;2023-08-17T00:09:23;100858.84;;;13.63;55.58
81905;BME280;71370;-33.792;151.032;2023-08-17T00:10:30;100855.05;;;13.66;55.12
81905;BME280;71370;-33.792;151.032;2023-08-17T00:11:37;100854.43;;;13.70;55.06
81905;BME280;71370;-33.792;151.032;2023-08-17T00:12:44;100850.45;;;13.74;54.87
81905;BME280;71370;-33.792;151.032;2023-08-17T00:13:51;100844.34;;;13.77;54.82
81905;BME280;71370;-33.792;151.032;2023-08-17T00:14:58;100841.73;;;13.82;55.10
81905;BME280;71370;-33.792;151.032;2023-08-17T00:16:05;100837.41;;;13.86;54.74
81905;BME280;71370;-33.792;151.032;2023-08-17T00:17:12;100836.95;;;13.90;54.79
81905;BME280;71370;-33.792;151.032;2023-08-17T00:18:19;100831.39;;;13.93;54.89
81905;BME280;71370;-33.792;151.032;2023-08-17T00:19:29;100831.10;;;13.98;54.59
81905;BME280;71370;-33.792;151.032;2023-08-17T00:20:36;100825.14;;;14.02;54.41
81905;BME280;71370;-33.792;151.032;2023-08-17T00:21:44;100824.52;;;14.06;53.25
81905;BME280;71370;-33.792;151.032;2023-08-17T00:22:51;100825.61;;;14.11;53.43
81905;BME280;71370;-33.792;151.032;2023-08-17T00:23:58;100824.42;;;14.15;53.84
81905;BME280;71370;-33.792;151.032;2023-08-17T00:25:06;100822.89;;;14.21;53.77
81905;BME280;71370;-33.792;151.032;2023-08-17T00:26:12;100822.38;;;14.26;53.26
81905;BME280;71370;-33.792;151.032;2023-08-17T00:27:20;100820.85;;;14.30;52.60
81905;BME280;71370;-33.792;151.032;2023-08-17T00:28:27;100821.44;;;14.35;52.69
81905;BME280;71370;-33.792;151.032;2023-08-17T00:29:34;100822.38;;;14.38;52.26
81905;BME280;71370;-33.792;151.032;2023-08-17T00:30:41;100818.23;;;14.42;52.06
81905;BME280;71370;-33.792;151.032;2023-08-17T00:31:48;100816.69;;;14.46;52.67
81905;BME280;71370;-33.792;151.032;2023-08-17T00:32:56;100814.25;;;14.51;52.60
81905;BME280;71370;-33.792;151.032;2023-08-17T00:34:03;100813.24;;;14.56;52.29
81905;BME280;71370;-33.792;151.032;2023-08-17T00:35:10;100812.23;;;14.61;51.95
81905;BME280;71370;-33.792;151.032;2023-08-17T00:36:17;100803.80;;;14.65;50.55
81905;BME280;71370;-33.792;151.032;2023-08-17T00:37:24;100798.75;;;14.68;51.06
81905;BME280;71370;-33.792;151.032;2023-08-17T00:38:30;100797.20;;;14.72;50.45
81905;BME280;71370;-33.792;151.032;2023-08-17T00:39:37;100800.45;;;14.76;50.24
81905;BME280;71370;-33.792;151.032;2023-08-17T00:40:45;100791.84;;;14.80;50.27
81905;BME280;71370;-33.792;151.032;2023-08-17T00:41:52;100788.36;;;14.84;49.72
81905;BME280;71370;-33.792;151.032;2023-08-17T00:42:59;100789.84;;;14.88;49.49
81905;BME280;71370;-33.792;151.032;2023-08-17T00:44:06;100785.29;;;14.92;49.94
81905;BME280;71370;-33.792;151.032;2023-08-17T00:45:13;100781.77;;;14.97;49.87
81905;BME280;71370;-33.792;151.032;2023-08-17T00:46:20;100777.51;;;15.04;50.52
81905;BME280;71370;-33.792;151.032;2023-08-17T00:47:29;100776.94;;;15.10;50.58
81905;BME280;71370;-33.792;151.032;2023-08-17T00:48:36;100776.77;;;15.16;50.07
81905;BME280;71370;-33.792;151.032;2023-08-17T00:49:43;100775.17;;;15.21;49.54
81905;BME280;71370;-33.792;151.032;2023-08-17T00:50:51;100770.56;;;15.27;49.37
81905;BME280;71370;-33.792;151.032;2023-08-17T00:51:59;100768.63;;;15.32;49.69
81905;BME280;71370;-33.792;151.032;2023-08-17T00:53:07;100768.30;;;15.36;49.91
81905;BME280;71370;-33.792;151.032;2023-08-17T00:54:24;100767.91;;;15.43;50.06
81905;BME280;71370;-33.792;151.032;2023-08-17T00:55:33;100765.48;;;15.47;49.73
81905;BME280;71370;-33.792;151.032;2023-08-17T00:56:41;100763.70;;;15.52;49.88
81905;BME280;71370;-33.792;151.032;2023-08-17T00:57:48;100765.27;;;15.58;49.82
81905;BME280;71370;-33.792;151.032;2023-08-17T00:58:56;100764.73;;;15.64;49.54
81905;BME280;71370;-33.792;151.032;2023-08-17T01:00:03;100765.97;;;15.69;49.44
81905;BME280;71370;-33.792;151.032;2023-08-17T01:01:10;100765.14;;;15.73;48.81
81905;BME280;71370;-33.792;151.032;2023-08-17T01:02:18;100762.15;;;15.78;49.06
81905;BME280;71370;-33.792;151.032;2023-08-17T01:03:28;100759.65;;;15.83;48.14
81905;BME280;71370;-33.792;151.032;2023-08-17T01:04:38;100760.37;;;15.88;47.01
81905;BME280;71370;-33.792;151.032;2023-08-17T01:05:44;100752.61;;;15.92;47.48
81905;BME280;71370;-33.792;151.032;2023-08-17T01:06:51;100751.05;;;15.96;47.88
81905;BME280;71370;-33.792;151.032;2023-08-17T01:07:59;100746.81;;;16.01;47.83
81905;BME280;71370;-33.792;151.032;2023-08-17T01:09:07;100741.69;;;16.05;47.69
81905;BME280;71370;-33.792;151.032;2023-08-17T01:10:15;100733.86;;;16.10;48.04
81905;BME280;71370;-33.792;151.032;2023-08-17T01:12:52;100731.67;;;16.22;47.66
81905;BME280;71370;-33.792;151.032;2023-08-17T01:15:40;100730.46;;;16.35;46.68
81905;BME280;71370;-33.792;151.032;2023-08-17T01:17:15;100722.35;;;16.39;46.61
81905;BME280;71370;-33.792;151.032;2023-08-17T01:18:33;100721.95;;;16.44;46.72
81905;BME280;71370;-33.792;151.032;2023-08-17T01:19:43;100720.31;;;16.50;46.53
81905;BME280;71370;-33.792;151.032;2023-08-17T01:20:53;100713.62;;;16.53;46.31
81905;BME280;71370;-33.792;151.032;2023-08-17T01:22:08;100706.39;;;16.57;46.47
81905;BME280;71370;-33.792;151.032;2023-08-17T01:23:17;100705.15;;;16.62;45.87
81905;BME280;71370;-33.792;151.032;2023-08-17T01:24:24;100705.93;;;16.64;45.12
81905;BME280;71370;-33.792;151.032;2023-08-17T01:25:33;100700.52;;;16.66;45.46
81905;BME280;71370;-33.792;151.032;2023-08-17T01:26:43;100703.79;;;16.69;44.31
81905;BME280;71370;-33.792;151.032;2023-08-17T01:27:50;100702.41;;;16.72;43.99
81905;BME280;71370;-33.792;151.032;2023-08-17T01:28:57;100699.40;;;16.77;44.10
81905;BME280;71370;-33.792;151.032;2023-08-17T01:30:05;100696.00;;;16.82;42.33
81905;BME280;71370;-33.792;151.032;2023-08-17T01:31:18;100692.47;;;16.86;40.71
81905;BME280;71370;-33.792;151.032;2023-08-17T01:32:50;100693.56;;;16.90;41.89
81905;BME280;71370;-33.792;151.032;2023-08-17T01:34:05;100686.98;;;16.95;41.84
81905;BME280;71370;-33.792;151.032;2023-08-17T01:35:38;100682.02;;;16.99;42.47
81905;BME280;71370;-33.792;151.032;2023-08-17T01:36:57;100674.70;;;17.08;42.25
81905;BME280;71370;-33.792;151.032;2023-08-17T01:38:07;100673.30;;;17.17;40.43
81905;BME280;71370;-33.792;151.032;2023-08-17T01:39:16;100668.45;;;17.22;39.49
81905;BME280;71370;-33.792;151.032;2023-08-17T01:40:25;100663.89;;;17.25;39.02
81905;BME280;71370;-33.792;151.032;2023-08-17T01:41:35;100662.09;;;17.29;39.60
81905;BME280;71370;-33.792;151.032;2023-08-17T01:42:44;100655.81;;;17.35;39.23
81905;BME280;71370;-33.792;151.032;2023-08-17T01:43:51;100649.92;;;17.40;39.71
81905;BME280;71370;-33.792;151.032;2023-08-17T01:44:59;100647.42;;;17.44;39.97
81905;BME280;71370;-33.792;151.032;2023-08-17T01:46:07;100645.77;;;17.49;40.23
81905;BME280;71370;-33.792;151.032;2023-08-17T01:47:14;100640.33;;;17.56;40.54
81905;BME280;71370;-33.792;151.032;2023-08-17T01:48:21;100638.91;;;17.64;40.79
81905;BME280;71370;-33.792;151.032;2023-08-17T01:49:28;100632.37;;;17.71;40.66
81905;BME280;71370;-33.792;151.032;2023-08-17T01:50:35;100626.86;;;17.79;40.38
81905;BME280;71370;-33.792;151.032;2023-08-17T01:51:42;100624.44;;;17.86;40.34
81905;BME280;71370;-33.792;151.032;2023-08-17T01:52:49;100625.70;;;17.94;39.85
81905;BME280;71370;-33.792;151.032;2023-08-17T01:53:59;100619.17;;;18.00;39.40
81905;BME280;71370;-33.792;151.032;2023-08-17T01:55:06;100619.73;;;18.07;39.55
81905;BME280;71370;-33.792;151.032;2023-08-17T01:56:13;100617.08;;;18.14;39.32
81905;BME280;71370;-33.792;151.032;2023-08-17T01:57:20;100615.94;;;18.19;39.75
81905;BME280;71370;-33.792;151.032;2023-08-17T01:58:27;100612.17;;;18.24;39.69
81905;BME280;71370;-33.792;151.032;2023-08-17T01:59:34;100609.23;;;18.30;39.79
81905;BME280;71370;-33.792;151.032;2023-08-17T02:00:41;100605.42;;;18.35;39.86
81905;BME280;71370;-33.792;151.032;2023-08-17T02:01:48;100603.21;;;18.40;39.49
81905;BME280;71370;-33.792;151.032;2023-08-17T02:02:55;100600.69;;;18.45;38.56
81905;BME280;71370;-33.792;151.032;2023-08-17T02:04:02;100593.66;;;18.46;37.80
81905;BME280;71370;-33.792;151.032;2023-08-17T02:05:10;100592.88;;;18.48;38.45
81905;BME280;71370;-33.792;151.032;2023-08-17T02:06:17;100589.89;;;18.51;38.74
81905;BME280;71370;-33.792;151.032;2023-08-17T02:07:23;100584.59;;;18.54;38.16
81905;BME280;71370;-33.792;151.032;2023-08-17T02:08:32;100581.79;;;18.56;38.44
81905;BME280;71370;-33.792;151.032;2023-08-17T02:09:40;100578.35;;;18.57;37.97
81905;BME280;71370;-33.792;151.032;2023-08-17T02:10:47;100576.95;;;18.60;38.16
81905;BME280;71370;-33.792;151.032;2023-08-17T02:11:54;100575.48;;;18.61;36.93
81905;BME280;71370;-33.792;151.032;2023-08-17T02:13:00;100567.98;;;18.61;36.91
81905;BME280;71370;-33.792;151.032;2023-08-17T02:14:07;100570.58;;;18.63;36.88
81905;BME280;71370;-33.792;151.032;2023-08-17T02:15:14;100568.13;;;18.65;36.44
81905;BME280;71370;-33.792;151.032;2023-08-17T02:16:22;100565.44;;;18.70;37.10
81905;BME280;71370;-33.792;151.032;2023-08-17T02:17:29;100561.56;;;18.76;36.32
81905;BME280;71370;-33.792;151.032;2023-08-17T02:18:36;100562.45;;;18.84;36.29
81905;BME280;71370;-33.792;151.032;2023-08-17T02:19:43;100563.26;;;18.93;35.71
81905;BME280;71370;-33.792;151.032;2023-08-17T02:20:50;100557.77;;;18.99;35.46
81905;BME280;71370;-33.792;151.032;2023-08-17T02:21:57;100560.60;;;19.06;33.36
81905;BME280;71370;-33.792;151.032;2023-08-17T02:23:04;100561.03;;;19.09;33.79
81905;BME280;71370;-33.792;151.032;2023-08-17T02:24:11;100558.84;;;19.09;33.97
81905;BME280;71370;-33.792;151.032;2023-08-17T02:25:18;100555.19;;;19.11;33.94
81905;BME280;71370;-33.792;151.032;2023-08-17T02:26:25;100551.48;;;19.14;34.36
81905;BME280;71370;-33.792;151.032;2023-08-17T02:27:32;100553.02;;;19.18;33.31
81905;BME280;71370;-33.792;151.032;2023-08-17T02:28:39;100550.64;;;19.23;33.53
81905;BME280;71370;-33.792;151.032;2023-08-17T02:29:45;100551.98;;;19.28;33.57
81905;BME280;71370;-33.792;151.032;2023-08-17T02:30:59;100551.42;;;19.32;33.80
81905;BME280;71370;-33.792;151.032;2023-08-17T02:32:06;100553.40;;;19.38;32.35
81905;BME280;71370;-33.792;151.032;2023-08-17T02:33:13;100549.89;;;19.40;32.92
81905;BME280;71370;-33.792;151.032;2023-08-17T02:34:20;100549.55;;;19.44;32.45
81905;BME280;71370;-33.792;151.032;2023-08-17T02:35:27;100548.52;;;19.46;32.35
81905;BME280;71370;-33.792;151.032;2023-08-17T02:36:33;100545.02;;;19.49;32.25
81905;BME280;71370;-33.792;151.032;2023-08-17T02:37:40;100539.35;;;19.51;31.48
81905;BME280;71370;-33.792;151.032;2023-08-17T02:38:47;100543.21;;;19.52;31.90
81905;BME280;71370;-33.792;151.032;2023-08-17T02:39:54;100539.99;;;19.55;32.12
81905;BME280;71370;-33.792;151.032;2023-08-17T02:41:00;100535.38;;;19.62;31.20
81905;BME280;71370;-33.792;151.032;2023-08-17T02:42:07;100533.86;;;19.67;31.63
81905;BME280;71370;-33.792;151.032;2023-08-17T02:43:14;100532.52;;;19.72;32.08
81905;BME280;71370;-33.792;151.032;2023-08-17T02:44:21;100532.36;;;19.78;32.44
81905;BME280;71370;-33.792;151.032;2023-08-17T02:45:28;100531.19;;;19.87;31.86
81905;BME280;71370;-33.792;151.032;2023-08-17T02:46:35;100524.98;;;19.92;31.94
81905;BME280;71370;-33.792;151.032;2023-08-17T02:47:42;100527.09;;;19.99;31.71
81905;BME280;71370;-33.792;151.032;2023-08-17T02:48:49;100524.89;;;20.07;30.96
81905;BME280;71370;-33.792;151.032;2023-08-17T02:49:56;100524.17;;;20.13;30.82
81905;BME280;71370;-33.792;151.032;2023-08-17T02:51:03;100519.84;;;20.17;30.60
81905;BME280;71370;-33.792;151.032;2023-08-17T02:52:10;100519.63;;;20.21;30.00
81905;BME280;71370;-33.792;151.032;2023-08-17T02:53:17;100515.73;;;20.23;28.56
81905;BME280;71370;-33.792;151.032;2023-08-17T02:54:25;100515.33;;;20.24;28.05
81905;BME280;71370;-33.792;151.032;2023-08-17T02:55:32;100512.02;;;20.26;28.33
81905;BME280;71370;-33.792;151.032;2023-08-17T02:56:38;100515.88;;;20.27;27.85
81905;BME280;71370;-33.792;151.032;2023-08-17T02:57:45;100513.61;;;20.26;28.21
81905;BME280;71370;-33.792;151.032;2023-08-17T02:58:52;100511.67;;;20.22;29.03
81905;BME280;71370;-33.792;151.032;2023-08-17T02:59:59;100514.99;;;20.17;29.11
81905;BME280;71370;-33.792;151.032;2023-08-17T03:01:07;100508.70;;;20.09;28.18
81905;BME280;71370;-33.792;151.032;2023-08-17T03:02:13;100509.89;;;19.97;28.24
81905;BME280;71370;-33.792;151.032;2023-08-17T03:03:20;100509.36;;;19.88;29.22
81905;BME280;71370;-33.792;151.032;2023-08-17T03:04:27;100509.43;;;19.80;29.68
81905;BME280;71370;-33.792;151.032;2023-08-17T03:05:34;100504.32;;;19.76;29.45
81905;BME280;71370;-33.792;151.032;2023-08-17T03:06:41;100503.51;;;19.74;28.75
81905;BME280;71370;-33.792;151.032;2023-08-17T03:07:48;100499.06;;;19.70;26.93
81905;BME280;71370;-33.792;151.032;2023-08-17T03:08:55;100491.13;;;19.65;26.81
81905;BME280;71370;-33.792;151.032;2023-08-17T03:10:02;100487.96;;;19.64;26.36
81905;BME280;71370;-33.792;151.032;2023-08-17T03:11:09;100486.10;;;19.69;25.49
81905;BME280;71370;-33.792;151.032;2023-08-17T03:12:16;100484.60;;;19.74;26.05
81905;BME280;71370;-33.792;151.032;2023-08-17T03:13:23;100484.58;;;19.81;26.57
81905;BME280;71370;-33.792;151.032;2023-08-17T03:14:30;100483.61;;;19.86;26.66
81905;BME280;71370;-33.792;151.032;2023-08-17T03:15:37;100481.42;;;19.86;26.63
81905;BME280;71370;-33.792;151.032;2023-08-17T03:16:46;100478.52;;;19.84;25.55
81905;BME280;71370;-33.792;151.032;2023-08-17T03:17:53;100476.48;;;19.82;25.87
81905;BME280;71370;-33.792;151.032;2023-08-17T03:19:00;100477.91;;;19.82;25.86
81905;BME280;71370;-33.792;151.032;2023-08-17T03:20:07;100474.22;;;19.88;26.10
81905;BME280;71370;-33.792;151.032;2023-08-17T03:21:14;100472.35;;;19.89;25.75
81905;BME280;71370;-33.792;151.032;2023-08-17T03:22:21;100468.54;;;19.87;25.96
81905;BME280;71370;-33.792;151.032;2023-08-17T03:23:28;100465.43;;;19.85;26.31
81905;BME280;71370;-33.792;151.032;2023-08-17T03:24:35;100462.85;;;19.83;26.63
81905;BME280;71370;-33.792;151.032;2023-08-17T03:25:42;100461.27;;;19.83;26.41
81905;BME280;71370;-33.792;151.032;2023-08-17T03:26:49;100462.44;;;19.88;26.02
81905;BME280;71370;-33.792;151.032;2023-08-17T03:27:56;100462.73;;;19.92;25.89
81905;BME280;71370;-33.792;151.032;2023-08-17T03:29:03;100461.55;;;19.97;26.59
81905;BME280;71370;-33.792;151.032;2023-08-17T03:30:10;100463.89;;;20.03;26.46
81905;BME280;71370;-33.792;151.032;2023-08-17T03:31:17;100464.66;;;20.08;26.47
81905;BME280;71370;-33.792;151.032;2023-08-17T03:32:26;100466.92;;;20.12;25.78
81905;BME280;71370;-33.792;151.032;2023-08-17T03:33:33;100464.98;;;20.15;25.80
81905;BME280;71370;-33.792;151.032;2023-08-17T03:34:40;100466.80;;;20.18;26.11
81905;BME280;71370;-33.792;151.032;2023-08-17T03:35:47;100467.15;;;20.20;26.17
81905;BME280;71370;-33.792;151.032;2023-08-17T03:36:54;100463.13;;;20.22;25.89
81905;BME280;71370;-33.792;151.032;2023-08-17T03:38:01;100456.06;;;20.24;25.91
81905;BME280;71370;-33.792;151.032;2023-08-17T03:39:07;100456.55;;;20.25;25.56
81905;BME280;71370;-33.792;151.032;2023-08-17T03:40:15;100453.39;;;20.24;25.12
81905;BME280;71370;-33.792;151.032;2023-08-17T03:41:22;100452.58;;;20.22;25.49
81905;BME280;71370;-33.792;151.032;2023-08-17T03:42:32;100450.25;;;20.23;25.19
81905;BME280;71370;-33.792;151.032;2023-08-17T03:43:39;100443.88;;;20.22;25.74
81905;BME280;71370;-33.792;151.032;2023-08-17T03:44:46;100439.02;;;20.22;26.02
81905;BME280;71370;-33.792;151.032;2023-08-17T03:45:52;100437.66;;;20.24;26.13
81905;BME280;71370;-33.792;151.032;2023-08-17T03:46:59;100439.21;;;20.28;25.85
81905;BME280;71370;-33.792;151.032;2023-08-17T03:48:06;100439.27;;;20.31;25.26
81905;BME280;71370;-33.792;151.032;2023-08-17T03:49:13;100441.71;;;20.34;25.54
81905;BME280;71370;-33.792;151.032;2023-08-17T03:50:20;100437.56;;;20.38;25.77
81905;BME280;71370;-33.792;151.032;2023-08-17T03:51:27;100435.80;;;20.41;26.24
81905;BME280;71370;-33.792;151.032;2023-08-17T03:52:34;100424.86;;;20.45;26.10
81905;BME280;71370;-33.792;151.032;2023-08-17T03:53:41;100417.38;;;20.48;26.10
81905;BME280;71370;-33.792;151.032;2023-08-17T03:54:48;100410.98;;;20.49;25.82
81905;BME280;71370;-33.792;151.032;2023-08-17T03:55:55;100404.23;;;20.49;25.56
81905;BME280;71370;-33.792;151.032;2023-08-17T03:57:02;100406.41;;;20.49;25.95
81905;BME280;71370;-33.792;151.032;2023-08-17T03:58:09;100406.34;;;20.47;25.62
81905;BME280;71370;-33.792;151.032;2023-08-17T03:59:16;100403.57;;;20.46;26.28
81905;BME280;71370;-33.792;151.032;2023-08-17T04:00:23;100396.95;;;20.45;25.72
81905;BME280;71370;-33.792;151.032;2023-08-17T04:01:30;100390.92;;;20.45;25.83
81905;BME280;71370;-33.792;151.032;2023-08-17T04:02:37;100392.24;;;20.43;25.93
81905;BME280;71370;-33.792;151.032;2023-08-17T04:03:44;100389.77;;;20.43;25.72
81905;BME280;71370;-33.792;151.032;2023-08-17T04:04:51;100385.86;;;20.42;25.49
81905;BME280;71370;-33.792;151.032;2023-08-17T04:05:58;100383.66;;;20.40;25.52
81905;BME280;71370;-33.792;151.032;2023-08-17T04:07:10;100371.61;;;20.39;25.79
81905;BME280;71370;-33.792;151.032;2023-08-17T04:08:17;100370.88;;;20.39;26.12
81905;BME280;71370;-33.792;151.032;2023-08-17T04:09:24;100371.23;;;20.39;26.08
81905;BME280;71370;-33.792;151.032;2023-08-17T04:10:31;100372.77;;;20.41;25.95
81905;BME280;71370;-33.792;151.032;2023-08-17T04:11:38;100367.55;;;20.41;25.85
81905;BME280;71370;-33.792;151.032;2023-08-17T04:12:45;100364.21;;;20.43;25.51
81905;BME280;71370;-33.792;151.032;2023-08-17T04:13:52;100362.50;;;20.45;25.99
81905;BME280;71370;-33.792;151.032;2023-08-17T04:14:59;100361.56;;;20.46;26.03
81905;BME280;71370;-33.792;151.032;2023-08-17T04:16:06;100356.58;;;20.46;25.72
81905;BME280;71370;-33.792;151.032;2023-08-17T04:17:13;100353.45;;;20.47;25.66
81905;BME280;71370;-33.792;151.032;2023-08-17T04:18:20;100351.23;;;20.48;26.12
81905;BME280;71370;-33.792;151.032;2023-08-17T04:19:27;100346.83;;;20.50;26.48
81905;BME280;71370;-33.792;151.032;2023-08-17T04:20:34;100346.70;;;20.52;26.30
81905;BME280;71370;-33.792;151.032;2023-08-17T04:21:41;100349.30;;;20.54;26.52
81905;BME280;71370;-33.792;151.032;2023-08-17T04:22:48;100346.88;;;20.55;26.63
81905;BME280;71370;-33.792;151.032;2023-08-17T04:23:55;100345.90;;;20.57;26.92
81905;BME280;71370;-33.792;151.032;2023-08-17T04:25:02;100343.30;;;20.58;26.72
81905;BME280;71370;-33.792;151.032;2023-08-17T04:26:09;100338.61;;;20.59;26.55
81905;BME280;71370;-33.792;151.032;2023-08-17T04:27:16;100335.44;;;20.58;26.04
81905;BME280;71370;-33.792;151.032;2023-08-17T04:28:23;100334.13;;;20.56;25.35
81905;BME280;71370;-33.792;151.032;2023-08-17T04:29:31;100338.09;;;20.53;25.87
81905;BME280;71370;-33.792;151.032;2023-08-17T04:30:38;100336.89;;;20.49;26.04
81905;BME280;71370;-33.792;151.032;2023-08-17T04:31:45;100335.13;;;20.46;26.02
81905;BME280;71370;-33.792;151.032;2023-08-17T04:32:52;100340.70;;;20.42;25.77
81905;BME280;71370;-33.792;151.032;2023-08-17T04:33:59;100337.09;;;20.40;26.41
81905;BME280;71370;-33.792;151.032;2023-08-17T04:35:06;100335.96;;;20.38;27.04
81905;BME280;71370;-33.792;151.032;2023-08-17T04:36:13;100334.76;;;20.37;26.68
81905;BME280;71370;-33.792;151.032;2023-08-17T04:37:20;100329.84;;;20.36;26.60
81905;BME280;71370;-33.792;151.032;2023-08-17T04:38:28;100330.45;;;20.35;26.44
81905;BME280;71370;-33.792;151.032;2023-08-17T04:39:35;100326.20;;;20.34;26.90
81905;BME280;71370;-33.792;151.032;2023-08-17T04:40:42;100325.95;;;20.32;25.82
81905;BME280;71370;-33.792;151.032;2023-08-17T04:41:49;100329.33;;;20.30;25.78
81905;BME280;71370;-33.792;151.032;2023-08-17T04:42:56;100328.27;;;20.23;25.24
81905;BME280;71370;-33.792;151.032;2023-08-17T04:44:03;100326.65;;;20.18;25.51
81905;BME280;71370;-33.792;151.032;2023-08-17T04:45:10;100333.18;;;20.13;25.65
81905;BME280;71370;-33.792;151.032;2023-08-17T04:46:17;100339.45;;;20.09;26.17
81905;BME280;71370;-33.792;151.032;2023-08-17T04:47:24;100339.83;;;20.07;26.08
81905;BME280;71370;-33.792;151.032;2023-08-17T04:48:30;100345.73;;;20.03;25.51
81905;BME280;71370;-33.792;151.032;2023-08-17T04:49:38;100343.90;;;19.98;25.79
81905;BME280;71370;-33.792;151.032;2023-08-17T04:50:45;100343.27;;;19.93;25.80
81905;BME280;71370;-33.792;151.032;2023-08-17T04:51:52;100349.70;;;19.90;25.81
81905;BME280;71370;-33.792;151.032;2023-08-17T04:52:59;100351.48;;;19.87;25.99
81905;BME280;71370;-33.792;151.032;2023-08-17T04:54:06;100356.14;;;19.83;26.04
81905;BME280;71370;-33.792;151.032;2023-08-17T04:55:14;100353.77;;;19.81;26.25
81905;BME280;71370;-33.792;151.032;2023-08-17T04:56:21;100349.17;;;19.78;26.29
81905;BME280;71370;-33.792;151.032;2023-08-17T04:57:28;100347.56;;;19.75;26.45
81905;BME280;71370;-33.792;151.032;2023-08-17T04:58:35;100347.66;;;19.73;26.42
81905;BME280;71370;-33.792;151.032;2023-08-17T04:59:42;100346.48;;;19.72;25.97
81905;BME280;71370;-33.792;151.032;2023-08-17T05:00:49;100347.06;;;19.67;26.13
81905;BME280;71370;-33.792;151.032;2023-08-17T05:01:55;100352.23;;;19.64;26.18
81905;BME280;71370;-33.792;151.032;2023-08-17T05:03:03;100349.94;;;19.60;26.23
81905;BME280;71370;-33.792;151.032;2023-08-17T05:04:10;100348.69;;;19.58;26.05
81905;BME280;71370;-33.792;151.032;2023-08-17T05:05:17;100347.16;;;19.53;26.15
81905;BME280;71370;-33.792;151.032;2023-08-17T05:06:24;100346.09;;;19.50;26.49
81905;BME280;71370;-33.792;151.032;2023-08-17T05:07:31;100344.49;;;19.47;27.50
81905;BME280;71370;-33.792;151.032;2023-08-17T05:08:38;100346.29;;;19.43;26.96
81905;BME280;71370;-33.792;151.032;2023-08-17T05:09:45;100346.45;;;19.40;26.97
81905;BME280;71370;-33.792;151.032;2023-08-17T05:10:52;100348.07;;;19.37;26.77
81905;BME280;71370;-33.792;151.032;2023-08-17T05:11:59;100341.88;;;19.33;27.43
81905;BME280;71370;-33.792;151.032;2023-08-17T05:13:05;100345.09;;;19.30;27.91
81905;BME280;71370;-33.792;151.032;2023-08-17T05:14:12;100342.23;;;19.26;27.70
81905;BME280;71370;-33.792;151.032;2023-08-17T05:15:19;100342.37;;;19.24;27.42
81905;BME280;71370;-33.792;151.032;2023-08-17T05:16:26;100345.31;;;19.23;27.71
81905;BME280;71370;-33.792;151.032;2023-08-17T05:17:33;100347.88;;;19.21;27.81
81905;BME280;71370;-33.792;151.032;2023-08-17T05:18:41;100345.90;;;19.18;28.10
81905;BME280;71370;-33.792;151.032;2023-08-17T05:19:48;100342.31;;;19.16;28.59
81905;BME280;71370;-33.792;151.032;2023-08-17T05:20:55;100344.05;;;19.13;28.39
81905;BME280;71370;-33.792;151.032;2023-08-17T05:22:02;100343.55;;;19.09;27.68
81905;BME280;71370;-33.792;151.032;2023-08-17T05:23:08;100342.16;;;19.05;27.24
81905;BME280;71370;-33.792;151.032;2023-08-17T05:24:15;100342.38;;;19.01;27.08
81905;BME280;71370;-33.792;151.032;2023-08-17T05:25:23;100343.64;;;18.98;27.12
81905;BME280;71370;-33.792;151.032;2023-08-17T05:26:32;100348.23;;;18.95;27.29
81905;BME280;71370;-33.792;151.032;2023-08-17T05:27:39;100351.06;;;18.92;27.39
81905;BME280;71370;-33.792;151.032;2023-08-17T05:28:46;100349.60;;;18.90;26.94
81905;BME280;71370;-33.792;151.032;2023-08-17T05:29:53;100347.33;;;18.86;27.03
81905;BME280;71370;-33.792;151.032;2023-08-17T05:31:06;100350.64;;;18.84;27.01
81905;BME280;71370;-33.792;151.032;2023-08-17T05:32:14;100351.20;;;18.80;27.04
81905;BME280;71370;-33.792;151.032;2023-08-17T05:33:21;100350.80;;;18.77;27.10
81905;BME280;71370;-33.792;151.032;2023-08-17T05:34:27;100353.28;;;18.74;27.57
81905;BME280;71370;-33.792;151.032;2023-08-17T05:35:34;100349.67;;;18.71;27.98
81905;BME280;71370;-33.792;151.032;2023-08-17T05:36:41;100349.61;;;18.69;28.17
81905;BME280;71370;-33.792;151.032;2023-08-17T05:37:48;100342.64;;;18.66;28.32
81905;BME280;71370;-33.792;151.032;2023-08-17T05:38:56;100339.08;;;18.63;28.12
81905;BME280;71370;-33.792;151.032;2023-08-17T05:40:03;100340.09;;;18.61;28.04
81905;BME280;71370;-33.792;151.032;2023-08-17T05:41:11;100337.83;;;18.59;27.91
81905;BME280;71370;-33.792;151.032;2023-08-17T05:42:18;100336.70;;;18.57;27.89
81905;BME280;71370;-33.792;151.032;2023-08-17T05:43:25;100332.16;;;18.56;27.86